Haskells, Indiana
Current Conditions -  °F | °C
As of 6:56 PM on Thursday 27 Nov 2014 (Local Time) from KVPZ Reporting Station
Overcast Overcast  
Wind Chill: 14°   Ceiling: 3800
Heat Index: 23°   Visibility: 10mi
Dew Point: 12°   Wind: 8mph
Humidity: 63%   Direction: 310°NW
Pressure: 30.38"   Gusts: NA
Location:  41.4092°N, 86.8646°W
Report Text: KVPZ 280056Z AUTO 31007KT 10SM OVC038 M05/M11 A3038 RMK AO2 SNB05E31 SLP300 P0000 T10501111 TSNO
Loading
Personal Weather Stations






























Interactive Weather Map New forecast layout! Learn more

10-Day Weather Forecast

Advertisements
Track Severe Weather on mobile